Time;durP1;ratioP1;P1;durP2;ratioP2;P2;SDS_P1;SDS_P2;PMS_P1;PMS_P2;Temp;Humidity;BMP_temperature;BMP_pressure;BME280_temperature;BME280_humidity;BME280_pressure;Samples;Min_cycle;Max_cycle;Signal;HPM_P1;HPM_P2
2023/04/19 00:02:22;;;;;;;8.38;7.07;;;7.60;99.90;;;;;;5045121;28;20041;-36
2023/04/19 00:04:50;;;;;;;10.57;5.95;;;7.60;99.90;;;;;;5044460;28;20056;-36
2023/04/19 00:07:19;;;;;;;10.93;6.10;;;7.60;99.90;;;;;;5044655;28;20536;-36
2023/04/19 00:09:47;;;;;;;9.25;6.43;;;7.50;99.90;;;;;;5045668;28;20071;-36
2023/04/19 00:12:15;;;;;;;7.70;5.88;;;7.50;99.90;;;;;;5060787;28;20056;-36
2023/04/19 00:14:42;;;;;;;10.02;7.03;;;7.50;99.90;;;;;;5045346;28;20056;-36
2023/04/19 00:17:10;;;;;;;7.85;6.03;;;7.50;99.90;;;;;;5045580;28;20481;-36
2023/04/19 00:19:38;;;;;;;7.70;5.63;;;7.50;99.90;;;;;;5044418;28;20539;-36
2023/04/19 00:22:05;;;;;;;10.80;7.10;;;7.50;99.90;;;;;;5043938;28;20064;-36
2023/04/19 00:24:33;;;;;;;7.03;5.97;;;7.50;99.90;;;;;;5045769;28;20057;-36
2023/04/19 00:27:01;;;;;;;9.30;6.93;;;7.50;99.90;;;;;;5045252;28;20505;-36
2023/04/19 00:29:28;;;;;;;9.40;6.75;;;7.50;99.90;;;;;;5044580;28;20513;-36
2023/04/19 00:31:58;;;;;;;10.75;6.47;;;7.50;99.90;;;;;;5044878;28;20041;-36
2023/04/19 00:34:25;;;;;;;10.50;7.30;;;7.50;99.90;;;;;;5044286;28;20049;-36
2023/04/19 00:36:56;;;;;;;11.15;7.43;;;7.50;99.90;;;;;;5045242;28;20053;-37
2023/04/19 00:39:23;;;;;;;9.02;6.95;;;7.50;99.90;;;;;;5044642;28;20052;-36
2023/04/19 00:41:51;;;;;;;8.68;7.25;;;7.40;99.90;;;;;;5045577;28;20065;-36
2023/04/19 00:44:19;;;;;;;11.52;6.85;;;7.40;99.90;;;;;;5042979;28;20041;-35
2023/04/19 00:46:47;;;;;;;9.15;7.07;;;7.40;99.90;;;;;;5044430;28;20049;-36
2023/04/19 00:49:19;;;;;;;11.00;9.35;;;7.40;99.90;;;;;;5059241;28;20535;-36
2023/04/19 00:51:51;;;;;;;9.63;7.18;;;7.40;99.90;;;;;;5045102;28;20049;-36
2023/04/19 00:54:19;;;;;;;11.27;9.00;;;7.40;99.90;;;;;;5043858;28;20049;-36
2023/04/19 00:56:49;;;;;;;8.85;6.95;;;7.40;99.90;;;;;;5058156;28;20514;-49
2023/04/19 00:59:17;;;;;;;10.45;7.43;;;7.40;99.90;;;;;;5059454;28;20072;-48
2023/04/19 01:01:45;;;;;;;13.85;8.02;;;7.40;99.90;;;;;;5043251;28;20068;-48
2023/04/19 01:04:13;;;;;;;11.55;7.95;;;7.30;99.90;;;;;;5043659;28;20562;-48
2023/04/19 01:06:41;;;;;;;13.82;9.73;;;7.30;99.90;;;;;;5044204;28;20405;-47
2023/04/19 01:09:11;;;;;;;9.80;7.30;;;7.30;99.90;;;;;;5045162;28;20057;-47
2023/04/19 01:11:40;;;;;;;12.10;9.50;;;7.30;99.90;;;;;;5044013;28;20049;-47
2023/04/19 01:14:10;;;;;;;9.68;7.47;;;7.30;99.90;;;;;;5044129;28;20041;-46
2023/04/19 01:16:38;;;;;;;10.80;8.15;;;7.30;99.90;;;;;;5045026;28;20425;-47
2023/04/19 01:19:05;;;;;;;13.73;8.82;;;7.20;99.90;;;;;;5043933;28;20044;-47
2023/04/19 01:21:38;;;;;;;10.88;8.23;;;7.20;99.90;;;;;;5043448;28;20052;-47
2023/04/19 01:24:06;;;;;;;13.35;9.48;;;7.20;99.90;;;;;;5042750;28;20053;-47
2023/04/19 01:26:33;;;;;;;8.27;7.30;;;7.20;99.90;;;;;;5044746;28;20067;-47
2023/04/19 01:29:02;;;;;;;12.23;8.23;;;7.20;99.90;;;;;;5044359;28;20065;-47
2023/04/19 01:31:30;;;;;;;13.45;9.30;;;7.20;99.90;;;;;;5044347;28;20045;-47
2023/04/19 01:33:57;;;;;;;11.93;8.15;;;7.20;99.90;;;;;;5043620;28;20417;-47
2023/04/19 01:36:26;;;;;;;10.52;8.07;;;7.10;99.90;;;;;;5042465;28;20060;-47
2023/04/19 01:38:54;;;;;;;12.23;8.18;;;7.10;99.90;;;;;;5043973;28;20048;-47
2023/04/19 01:41:25;;;;;;;13.25;9.32;;;7.10;99.90;;;;;;5026925;28;20489;-47
2023/04/19 01:43:53;;;;;;;;;;;7.10;99.90;;;;;;5039544;28;20048;-47
2023/04/19 01:46:21;;;;;;;11.50;10.30;;;7.10;99.90;;;;;;5037054;28;19925;-47
2023/04/19 01:48:48;;;;;;;11.13;7.63;;;7.10;99.90;;;;;;5043620;28;20059;-47
2023/04/19 01:51:16;;;;;;;11.93;8.70;;;7.10;99.90;;;;;;5042538;28;20049;-47
2023/04/19 01:53:43;;;;;;;10.80;8.25;;;7.10;99.90;;;;;;5040787;28;20059;-47
2023/04/19 01:56:11;;;;;;;11.25;10.02;;;7.10;99.90;;;;;;5056295;28;20461;-48
2023/04/19 01:58:38;;;;;;;14.13;9.00;;;7.10;99.90;;;;;;5058907;28;20493;-47
2023/04/19 02:01:08;;;;;;;13.00;9.60;;;7.10;99.90;;;;;;5042177;28;20418;-47
2023/04/19 02:03:36;;;;;;;17.30;9.38;;;7.10;99.90;;;;;;5043937;28;20045;-48
2023/04/19 02:06:04;;;;;;;11.27;8.77;;;7.10;99.90;;;;;;5046110;28;20600;-47
2023/04/19 02:08:31;;;;;;;14.93;10.43;;;7.10;99.90;;;;;;5048257;28;20049;-47
2023/04/19 02:10:59;;;;;;;11.38;9.38;;;7.10;99.90;;;;;;5046955;28;20045;-48
2023/04/19 02:13:27;;;;;;;13.70;9.27;;;7.10;99.90;;;;;;5062468;28;20049;-48
2023/04/19 02:15:54;;;;;;;14.23;9.25;;;7.10;99.90;;;;;;5061477;28;20053;-48
2023/04/19 02:18:22;;;;;;;14.90;10.75;;;7.10;99.90;;;;;;5047998;28;20037;-47
2023/04/19 02:20:51;;;;;;;13.13;9.95;;;7.20;99.90;;;;;;5045125;28;20060;-47
2023/04/19 02:23:19;;;;;;;16.70;11.85;;;7.20;99.90;;;;;;5047216;28;20052;-47
2023/04/19 02:25:47;;;;;;;16.25;10.32;;;7.10;99.90;;;;;;5047639;28;20048;-48
2023/04/19 02:28:15;;;;;;;16.35;9.07;;;7.10;99.90;;;;;;5061812;28;20049;-47
2023/04/19 02:30:42;;;;;;;13.93;11.48;;;7.20;99.90;;;;;;5076126;28;20052;-48
2023/04/19 02:33:10;;;;;;;13.30;9.73;;;7.20;99.90;;;;;;5047790;28;20053;-47
2023/04/19 02:35:37;;;;;;;22.73;9.68;;;7.20;99.90;;;;;;5045623;28;20068;-47
2023/04/19 02:38:05;;;;;;;16.27;10.60;;;7.20;99.90;;;;;;5047445;28;20053;-47
2023/04/19 02:40:32;;;;;;;15.30;9.90;;;7.30;99.90;;;;;;5047194;28;20059;-48
2023/04/19 02:43:00;;;;;;;14.57;10.68;;;7.20;99.90;;;;;;5047042;28;20040;-47
2023/04/19 02:45:27;;;;;;;18.38;13.50;;;7.20;99.90;;;;;;5047396;28;20053;-48
2023/04/19 02:47:55;;;;;;;13.90;11.43;;;7.20;99.90;;;;;;5047049;28;20296;-47
2023/04/19 02:50:23;;;;;;;13.50;10.10;;;7.20;99.90;;;;;;5057879;28;20048;-47
2023/04/19 02:52:51;;;;;;;18.73;11.20;;;7.20;99.90;;;;;;5046214;28;20373;-48
2023/04/19 02:55:22;;;;;;;16.23;11.60;;;7.10;99.90;;;;;;5059595;28;20060;-48
2023/04/19 02:58:05;;;;;;;20.73;13.05;;;7.10;99.90;;;;;;5045924;28;20060;-48
2023/04/19 03:00:37;;;;;;;15.60;11.95;;;7.20;99.90;;;;;;5027467;28;20397;-48
2023/04/19 03:03:10;;;;;;;16.45;11.45;;;7.00;99.90;;;;;;5044648;28;20047;-47
2023/04/19 03:05:37;;;;;;;20.35;13.98;;;7.00;99.90;;;;;;5046349;28;20049;-48
2023/04/19 03:08:05;;;;;;;16.58;11.95;;;7.10;99.90;;;;;;5044113;28;20087;-48
2023/04/19 03:10:32;;;;;;;19.02;11.32;;;7.10;99.90;;;;;;5046438;28;20045;-47
2023/04/19 03:13:00;;;;;;;15.95;12.55;;;7.10;99.90;;;;;;5060997;28;20425;-47
2023/04/19 03:15:29;;;;;;;16.08;11.30;;;7.10;99.90;;;;;;5060679;28;20710;-48
2023/04/19 03:17:57;;;;;;;18.55;12.70;;;7.10;99.90;;;;;;5044680;28;20509;-47
2023/04/19 03:20:25;;;;;;;18.88;13.13;;;7.10;99.90;;;;;;5043571;28;20045;-47
2023/04/19 03:22:53;;;;;;;19.73;13.80;;;7.00;99.90;;;;;;5045616;28;20037;-47
2023/04/19 03:25:20;;;;;;;21.90;12.93;;;7.00;99.90;;;;;;5061529;28;20064;-47
2023/04/19 03:27:56;;;;;;;20.40;13.90;;;7.00;99.90;;;;;;5044907;28;20353;-48
2023/04/19 03:30:43;;;;;;;19.33;13.18;;;7.00;99.90;;;;;;5043828;28;20420;-48
2023/04/19 03:33:11;;;;;;;17.90;12.90;;;7.00;99.90;;;;;;5047112;28;20060;-47
2023/04/19 03:35:39;;;;;;;18.92;15.50;;;7.00;99.90;;;;;;5045170;28;20045;-48
2023/04/19 03:38:10;;;;;;;17.27;12.70;;;7.00;99.90;;;;;;5044825;28;20048;-47
2023/04/19 03:40:38;;;;;;;16.55;14.35;;;7.00;99.90;;;;;;5046110;28;20064;-47
2023/04/19 03:43:08;;;;;;;18.15;13.40;;;7.10;99.90;;;;;;5044976;28;20041;-47
2023/04/19 03:45:35;;;;;;;19.15;15.10;;;7.10;99.90;;;;;;5045830;28;20844;-47
2023/04/19 03:48:03;;;;;;;20.52;14.43;;;7.00;99.90;;;;;;5044044;28;20045;-47
2023/04/19 03:50:31;;;;;;;20.17;13.25;;;7.10;99.90;;;;;;5042783;28;20053;-48
2023/04/19 03:52:59;;;;;;;18.63;14.57;;;7.10;99.90;;;;;;5045114;28;20056;-47
2023/04/19 03:55:27;;;;;;;20.52;13.77;;;7.10;99.90;;;;;;5058738;28;20413;-48
2023/04/19 03:57:55;;;;;;;20.38;13.80;;;7.00;99.90;;;;;;5044195;28;20068;-47
2023/04/19 04:00:35;;;;;;;20.70;13.02;;;7.00;99.90;;;;;;4969802;28;20066;-47
2023/04/19 04:03:03;;;;;;;20.63;15.40;;;7.10;99.90;;;;;;4963458;28;20042;-47
2023/04/19 04:05:31;;;;;;;21.65;16.30;;;7.10;99.90;;;;;;4983965;28;20101;-47
2023/04/19 04:08:00;;;;;;;24.48;15.90;;;7.10;99.90;;;;;;4971031;28;20058;-48
2023/04/19 04:10:28;;;;;;;19.80;13.65;;;7.00;99.90;;;;;;4972390;28;20051;-47
2023/04/19 04:12:56;;;;;;;21.35;14.30;;;7.00;99.90;;;;;;4976205;28;20070;-48
2023/04/19 04:15:30;;;;;;;19.20;13.90;;;7.00;99.90;;;;;;4976864;28;20054;-47
2023/04/19 04:17:58;;;;;;;20.25;14.13;;;7.00;99.90;;;;;;4978979;28;20054;-48
2023/04/19 04:20:26;;;;;;;27.65;15.02;;;7.00;99.90;;;;;;4944047;28;20080;-48
2023/04/19 04:23:01;;;;;;;22.08;14.95;;;7.00;99.90;;;;;;4963425;28;20053;-48
2023/04/19 04:25:31;;;;;;;21.40;15.15;;;7.00;99.90;;;;;;5025835;28;20084;-47
2023/04/19 04:28:05;;;;;;;22.17;16.23;;;7.00;99.90;;;;;;5058779;28;20057;-47
2023/04/19 04:30:33;;;;;;;23.48;14.43;;;7.00;99.90;;;;;;5043073;28;20061;-47
2023/04/19 04:33:02;;;;;;;19.35;15.65;;;7.00;99.90;;;;;;5039572;28;20064;-47
2023/04/19 04:35:29;;;;;;;20.65;15.35;;;7.00;99.90;;;;;;5042137;28;20049;-47
2023/04/19 04:38:06;;;;;;;21.58;16.35;;;7.00;99.90;;;;;;5059945;28;20056;-47
2023/04/19 04:40:54;;;;;;;22.90;15.95;;;7.00;99.90;;;;;;5044628;28;20045;-47
2023/04/19 04:43:24;;;;;;;23.38;15.65;;;7.00;99.90;;;;;;5075133;28;20036;-47
2023/04/19 04:45:55;;;;;;;24.73;16.00;;;7.00;99.90;;;;;;5043389;28;20057;-47
2023/04/19 04:48:25;;;;;;;19.90;14.60;;;7.00;99.90;;;;;;5040416;28;20044;-47
2023/04/19 04:50:53;;;;;;;22.17;16.40;;;7.00;99.90;;;;;;5041309;28;20052;-47
2023/04/19 04:53:21;;;;;;;23.15;15.10;;;7.00;99.90;;;;;;5060045;28;20631;-47
2023/04/19 04:55:49;;;;;;;25.15;14.77;;;7.00;99.90;;;;;;5056223;28;20270;-47
2023/04/19 04:58:17;;;;;;;21.02;15.27;;;7.00;99.90;;;;;;5042540;28;20053;-48
2023/04/19 05:00:58;;;;;;;25.37;16.37;;;6.90;99.90;;;;;;5042364;28;20044;-47
2023/04/19 05:03:30;;;;;;;22.63;15.05;;;7.00;99.90;;;;;;5042546;28;20053;-48
2023/04/19 05:06:01;;;;;;;24.17;14.93;;;7.00;99.90;;;;;;5042869;28;20053;-47
2023/04/19 05:08:30;;;;;;;20.80;14.93;;;7.00;99.90;;;;;;5059677;28;20064;-48
2023/04/19 05:11:09;;;;;;;25.83;16.42;;;7.10;99.90;;;;;;5035958;28;20406;-47
2023/04/19 05:13:37;;;;;;;19.92;14.75;;;7.00;99.90;;;;;;5059851;28;20371;-47
2023/04/19 05:16:05;;;;;;;23.40;17.67;;;7.10;99.90;;;;;;5042011;28;20052;-47
2023/04/19 05:18:33;;;;;;;28.98;16.75;;;7.10;99.90;;;;;;5042568;28;20421;-47
2023/04/19 05:21:01;;;;;;;22.08;15.60;;;7.00;99.90;;;;;;5048858;28;20513;-47
2023/04/19 05:23:32;;;;;;;22.90;15.30;;;7.00;99.90;;;;;;5058844;28;20442;-48
2023/04/19 05:25:59;;;;;;;23.17;15.20;;;7.00;99.90;;;;;;5042828;28;20048;-47
2023/04/19 05:28:28;;;;;;;22.23;15.10;;;7.10;99.90;;;;;;5041492;28;20532;-47
2023/04/19 05:31:03;;;;;;;21.40;16.38;;;7.10;99.90;;;;;;5041577;28;20041;-47
2023/04/19 05:33:35;;;;;;;22.02;16.60;;;7.10;99.90;;;;;;5059783;28;20057;-47
2023/04/19 05:36:03;;;;;;;21.90;15.32;;;7.10;99.90;;;;;;5042755;28;20540;-49
2023/04/19 05:38:30;;;;;;;18.83;16.33;;;7.10;99.90;;;;;;5044839;28;20044;-48
2023/04/19 05:41:02;;;;;;;27.50;16.37;;;7.00;99.90;;;;;;5046577;28;20053;-48
2023/04/19 05:43:30;;;;;;;22.40;15.80;;;7.00;99.90;;;;;;5048041;28;20731;-48
2023/04/19 05:45:58;;;;;;;20.15;15.43;;;7.00;99.90;;;;;;5048162;28;20509;-47
2023/04/19 05:48:25;;;;;;;26.17;15.77;;;7.10;99.90;;;;;;5047954;28;20052;-48
2023/04/19 05:51:02;;;;;;;24.73;15.93;;;7.00;99.90;;;;;;5061214;28;20060;-47
2023/04/19 05:54:02;;;;;;;22.42;15.23;;;7.00;99.90;;;;;;5026724;28;20048;-47
2023/04/19 05:56:30;;;;;;;25.17;15.77;;;7.00;99.90;;;;;;5046170;28;20055;-47
2023/04/19 05:58:59;;;;;;;22.73;15.23;;;6.90;99.90;;;;;;5051143;28;20052;-47
2023/04/19 06:01:27;;;;;;;21.63;15.00;;;6.90;99.90;;;;;;5046507;28;20061;-47
2023/04/19 06:03:55;;;;;;;28.17;18.85;;;7.00;99.90;;;;;;5047053;28;20049;-47
2023/04/19 06:06:24;;;;;;;22.92;16.17;;;6.90;99.90;;;;;;5045585;28;20067;-47
2023/04/19 06:08:52;;;;;;;19.83;14.98;;;6.90;99.90;;;;;;5048480;28;20061;-47
2023/04/19 06:11:22;;;;;;;22.90;15.48;;;7.00;99.90;;;;;;5046926;28;20044;-47
2023/04/19 06:14:05;;;;;;;22.38;15.15;;;6.90;99.90;;;;;;5047151;28;20391;-47
2023/04/19 06:16:32;;;;;;;22.38;13.60;;;7.00;99.90;;;;;;5048665;28;20758;-47
2023/04/19 06:19:00;;;;;;;31.05;20.63;;;7.00;99.90;;;;;;5046195;28;20045;-47
2023/04/19 06:21:31;;;;;;;22.20;15.18;;;7.00;99.90;;;;;;5047437;28;20061;-47
2023/04/19 06:23:59;;;;;;;28.17;17.65;;;7.00;99.90;;;;;;5047866;28;20362;-47
2023/04/19 06:26:27;;;;;;;31.60;18.15;;;6.90;99.90;;;;;;5047061;28;20033;-47
2023/04/19 06:28:54;;;;;;;30.80;16.35;;;7.00;99.90;;;;;;5047794;28;20056;-47
2023/04/19 06:31:22;;;;;;;25.52;16.23;;;7.00;99.90;;;;;;5046463;28;20052;-47
2023/04/19 06:33:50;;;;;;;25.13;17.42;;;7.00;99.90;;;;;;5041655;28;20397;-48
2023/04/19 06:36:17;;;;;;;29.73;18.02;;;7.00;99.90;;;;;;5047381;28;20052;-47
2023/04/19 06:38:45;;;;;;;23.13;15.93;;;7.00;99.90;;;;;;5046747;28;20045;-47
2023/04/19 06:41:12;;;;;;;21.15;14.90;;;6.90;99.90;;;;;;5046791;28;20495;-48
2023/04/19 06:43:41;;;;;;;25.20;16.83;;;7.00;99.90;;;;;;5046990;28;20045;-47
2023/04/19 06:46:09;;;;;;;31.27;21.92;;;6.90;99.90;;;;;;5044415;28;20060;-47
2023/04/19 06:48:37;;;;;;;29.67;15.98;;;6.90;99.90;;;;;;5046964;28;20059;-47
2023/04/19 06:51:04;;;;;;;23.85;17.55;;;6.90;99.90;;;;;;5045073;28;20049;-47
2023/04/19 06:53:33;;;;;;;25.65;17.52;;;7.00;99.90;;;;;;5048084;28;20049;-47
2023/04/19 06:56:03;;;;;;;21.65;14.10;;;7.00;99.90;;;;;;5045712;28;20528;-47
2023/04/19 06:58:31;;;;;;;23.75;15.73;;;7.00;99.90;;;;;;5047170;28;20253;-48
2023/04/19 07:01:03;;;;;;;25.73;16.10;;;7.10;99.90;;;;;;5046507;28;20053;-47
2023/04/19 07:03:31;;;;;;;29.52;17.90;;;7.10;99.90;;;;;;5046826;28;20053;-47
2023/04/19 07:05:59;;;;;;;28.25;17.40;;;7.10;99.90;;;;;;5045782;28;20057;-47
2023/04/19 07:08:28;;;;;;;27.45;18.63;;;7.10;99.90;;;;;;5045787;28;20049;-47
2023/04/19 07:11:15;;;;;;;29.27;17.65;;;7.10;99.90;;;;;;5044595;28;20059;-47
2023/04/19 07:13:43;;;;;;;21.52;15.80;;;7.20;99.90;;;;;;5040668;28;20057;-47
2023/04/19 07:16:13;;;;;;;27.42;16.05;;;7.20;99.90;;;;;;5044962;28;20087;-47
2023/04/19 07:18:41;;;;;;;22.52;16.92;;;7.20;99.90;;;;;;5042463;28;20565;-47
2023/04/19 07:21:09;;;;;;;21.90;14.77;;;7.20;99.90;;;;;;5043130;28;20064;-47
2023/04/19 07:23:36;;;;;;;31.83;17.42;;;7.20;99.90;;;;;;5043478;28;20405;-46
2023/04/19 07:26:04;;;;;;;26.48;17.83;;;7.30;99.90;;;;;;5042790;28;20071;-48
2023/04/19 07:28:32;;;;;;;24.83;16.80;;;7.30;99.90;;;;;;5043921;28;20063;-47
2023/04/19 07:31:00;;;;;;;24.60;16.05;;;7.30;99.90;;;;;;5042836;28;20037;-47
2023/04/19 07:33:28;;;;;;;21.50;15.82;;;7.20;99.90;;;;;;5043676;28;20646;-46
2023/04/19 07:35:56;;;;;;;30.42;18.05;;;7.20;99.90;;;;;;5041265;28;20410;-47
2023/04/19 07:38:23;;;;;;;27.35;19.90;;;7.20;99.90;;;;;;5041535;28;20048;-47
2023/04/19 07:40:51;;;;;;;26.88;16.85;;;7.30;99.90;;;;;;5043153;28;20053;-46
2023/04/19 07:43:19;;;;;;;25.20;16.48;;;7.30;99.90;;;;;;5043485;28;20060;-47
2023/04/19 07:45:46;;;;;;;28.23;18.60;;;7.20;99.90;;;;;;5043172;28;20063;-47
2023/04/19 07:48:14;;;;;;;30.95;18.25;;;7.30;99.90;;;;;;5042646;28;20044;-47
2023/04/19 07:50:41;;;;;;;27.20;15.77;;;7.40;99.90;;;;;;5041769;28;20041;-46
2023/04/19 07:53:09;;;;;;;28.80;18.73;;;7.50;99.90;;;;;;5043663;28;20458;-49
2023/04/19 07:55:37;;;;;;;27.20;17.70;;;7.50;99.90;;;;;;5043403;28;20051;-47
2023/04/19 07:58:04;;;;;;;26.50;16.80;;;7.60;99.90;;;;;;5043260;28;20067;-47
2023/04/19 08:00:35;;;;;;;18.95;13.32;;;7.70;99.90;;;;;;5041668;28;20053;-47
2023/04/19 08:03:03;;;;;;;19.25;14.45;;;7.80;99.90;;;;;;5042889;28;20560;-46
2023/04/19 08:05:31;;;;;;;22.17;16.52;;;8.00;99.90;;;;;;5041815;28;20461;-47
2023/04/19 08:07:59;;;;;;;22.45;13.93;;;8.00;99.90;;;;;;5042656;28;20068;-48
2023/04/19 08:10:27;;;;;;;23.80;16.20;;;8.10;99.90;;;;;;5041192;28;20040;-47
2023/04/19 08:12:55;;;;;;;25.20;14.57;;;8.20;99.90;;;;;;5043149;28;20056;-47
2023/04/19 08:15:35;;;;;;;26.08;16.88;;;8.30;99.90;;;;;;5042079;28;20049;-47
2023/04/19 08:18:05;;;;;;;22.55;16.20;;;8.50;99.90;;;;;;5033884;28;20415;-47
2023/04/19 08:20:33;;;;;;;52.00;20.52;;;8.70;99.90;;;;;;5041303;28;20075;-47
2023/04/19 08:23:01;;;;;;;24.35;16.33;;;9.10;99.90;;;;;;5041530;28;20048;-47
2023/04/19 08:25:40;;;;;;;24.38;15.68;;;9.40;99.90;;;;;;5041992;28;20053;-49
2023/04/19 08:28:08;;;;;;;26.35;15.32;;;9.60;99.90;;;;;;5042540;28;20056;-47
2023/04/19 08:30:36;;;;;;;21.77;13.35;;;10.40;99.90;;;;;;5041150;28;20052;-47
2023/04/19 08:33:03;;;;;;;19.80;13.70;;;12.30;99.90;;;;;;5042748;28;20127;-47
2023/04/19 08:35:33;;;;;;;26.48;16.52;;;13.10;99.90;;;;;;5041088;28;20052;-47
2023/04/19 08:38:01;;;;;;;21.63;14.98;;;13.60;99.90;;;;;;5041672;28;20813;-47
2023/04/19 08:40:30;;;;;;;19.45;13.73;;;13.90;99.90;;;;;;5040876;28;20063;-47
2023/04/19 08:42:58;;;;;;;19.67;11.82;;;14.80;99.90;;;;;;5040095;28;20051;-47
2023/04/19 08:45:29;;;;;;;17.42;12.75;;;14.70;99.90;;;;;;5042335;28;20061;-47
2023/04/19 08:47:58;;;;;;;16.48;10.40;;;13.30;99.90;;;;;;5042133;28;20048;-47
2023/04/19 08:50:30;;;;;;;16.35;11.82;;;12.60;99.90;;;;;;5040798;28;20049;-47
2023/04/19 08:53:11;;;;;;;17.55;11.73;;;12.10;99.90;;;;;;5042396;28;20053;-47
2023/04/19 08:55:42;;;;;;;18.17;13.73;;;11.90;99.90;;;;;;5041381;28;20055;-47
2023/04/19 08:58:31;;;;;;;19.48;11.02;;;11.70;99.90;;;;;;5041882;28;20060;-47
2023/04/19 09:01:20;;;;;;;17.45;10.80;;;11.70;99.90;;;;;;5042388;28;20093;-37
2023/04/19 09:04:06;;;;;;;20.08;12.20;;;11.40;99.90;;;;;;5040890;28;20071;-37
2023/04/19 09:06:54;;;;;;;22.20;12.70;;;11.00;99.90;;;;;;5041047;28;20056;-36
2023/04/19 09:09:27;;;;;;;20.70;14.43;;;10.70;99.90;;;;;;5041799;28;20060;-36
2023/04/19 09:12:18;;;;;;;16.70;12.85;;;10.80;99.90;;;;;;5040637;28;20053;-36
2023/04/19 09:14:46;;;;;;;20.80;13.00;;;10.60;99.90;;;;;;5039836;28;20425;-36
2023/04/19 09:17:29;;;;;;;20.02;12.10;;;10.60;99.90;;;;;;5041456;28;20052;-36
2023/04/19 09:19:57;;;;;;;20.15;14.63;;;10.50;99.90;;;;;;5040283;28;20064;-37
2023/04/19 09:22:25;;;;;;;16.23;11.90;;;10.60;99.90;;;;;;5040293;28;20036;-37
2023/04/19 09:24:52;;;;;;;18.40;12.65;;;10.50;99.90;;;;;;5041759;28;20280;-36
2023/04/19 09:27:33;;;;;;;19.47;13.63;;;10.20;99.90;;;;;;5037547;28;20049;-36
2023/04/19 09:30:03;;;;;;;18.25;12.23;;;10.10;99.90;;;;;;5041717;28;20079;-36
2023/04/19 09:32:47;;;;;;;17.58;12.18;;;10.00;99.90;;;;;;5040871;28;20234;-36
2023/04/19 09:35:16;;;;;;;32.78;13.57;;;10.00;99.90;;;;;;5040261;28;20045;-37
2023/04/19 09:38:00;;;;;;;20.88;11.93;;;9.90;99.90;;;;;;5041661;28;20056;-36
2023/04/19 09:40:30;;;;;;;17.15;12.32;;;10.00;99.90;;;;;;5029043;28;20049;-36
2023/04/19 09:42:58;;;;;;;17.92;12.90;;;10.30;99.90;;;;;;5040406;28;20045;-36
2023/04/19 09:45:46;;;;;;;14.38;11.10;;;10.30;99.90;;;;;;5041203;28;20056;-36
2023/04/19 09:48:13;;;;;;;16.17;12.25;;;10.40;99.90;;;;;;5040023;28;20342;-36
2023/04/19 09:50:52;;;;;;;15.40;12.15;;;10.40;99.90;;;;;;5039952;28;20052;-36
2023/04/19 09:53:33;;;;;;;20.00;12.82;;;10.70;99.90;;;;;;5041452;28;20057;-36
2023/04/19 09:56:04;;;;;;;17.08;13.20;;;10.70;99.90;;;;;;5036586;28;20049;-36
2023/04/19 09:58:31;;;;;;;18.30;12.77;;;10.30;99.90;;;;;;5041394;28;20057;-36
2023/04/19 10:01:03;;;;;;;12.40;10.35;;;10.10;99.90;;;;;;5040933;28;20057;-36
2023/04/19 10:03:46;;;;;;;18.38;12.75;;;10.10;99.90;;;;;;5039455;28;20067;-37
2023/04/19 10:06:16;;;;;;;16.23;11.50;;;10.10;99.90;;;;;;5031899;28;20364;-36
2023/04/19 10:09:05;;;;;;;21.00;12.15;;;10.00;99.90;;;;;;5041342;28;20053;-36
2023/04/19 10:11:40;;;;;;;17.45;11.80;;;9.90;99.90;;;;;;5041028;28;20033;-36
2023/04/19 10:14:11;;;;;;;18.48;12.05;;;10.00;99.90;;;;;;5032706;28;20053;-36
2023/04/19 10:16:39;;;;;;;14.90;11.00;;;10.00;99.90;;;;;;5040690;28;20056;-36
2023/04/19 10:19:12;;;;;;;19.02;11.85;;;10.10;99.90;;;;;;5040161;28;20044;-36
2023/04/19 10:21:42;;;;;;;21.65;14.50;;;10.10;99.90;;;;;;5040514;28;20061;-36
2023/04/19 10:24:12;;;;;;;17.73;12.25;;;10.30;99.90;;;;;;5040324;28;20075;-36
2023/04/19 10:27:07;;;;;;;19.08;14.38;;;10.20;99.90;;;;;;5039707;28;20337;-36
2023/04/19 10:29:53;;;;;;;18.55;11.23;;;10.40;99.90;;;;;;5043503;28;20053;-36
2023/04/19 10:32:42;;;;;;;16.90;11.30;;;10.30;99.90;;;;;;5043924;28;20056;-37
2023/04/19 10:35:16;;;;;;;21.38;14.65;;;10.50;99.90;;;;;;5041658;28;20049;-41
2023/04/19 10:38:04;;;;;;;19.38;13.50;;;10.50;99.90;;;;;;5035991;28;20064;-36
2023/04/19 10:40:54;;;;;;;23.85;14.85;;;10.50;99.90;;;;;;5044075;28;20080;-36
2023/04/19 10:43:25;;;;;;;22.50;13.13;;;10.30;99.90;;;;;;5044112;28;20048;-37
2023/04/19 10:45:54;;;;;;;17.30;12.73;;;10.20;99.90;;;;;;5044489;28;20052;-37
2023/04/19 10:48:34;;;;;;;17.08;12.88;;;9.90;99.90;;;;;;5043786;28;20060;-37
2023/04/19 10:51:04;;;;;;;17.10;12.25;;;9.80;99.90;;;;;;5043230;28;20045;-36
2023/04/19 10:53:52;;;;;;;24.30;14.98;;;9.80;99.90;;;;;;5043385;28;20055;-36
2023/04/19 10:56:32;;;;;;;18.27;12.98;;;9.60;99.90;;;;;;5043078;28;20053;-37
2023/04/19 10:59:00;;;;;;;21.67;12.77;;;9.70;99.90;;;;;;5041640;28;20417;-36
2023/04/19 11:01:42;;;;;;;19.25;12.52;;;9.70;99.90;;;;;;5042227;28;20061;-36
2023/04/19 11:04:15;;;;;;;21.70;15.25;;;9.60;99.90;;;;;;5042798;28;20434;-36
2023/04/19 11:06:52;;;;;;;14.77;11.32;;;9.70;99.90;;;;;;5043154;28;20056;-37
2023/04/19 11:09:30;;;;;;;23.02;14.27;;;9.70;99.90;;;;;;5043790;28;20057;-36
2023/04/19 11:12:07;;;;;;;18.23;11.13;;;9.50;99.90;;;;;;5043199;28;20128;-37
2023/04/19 11:14:39;;;;;;;17.20;11.65;;;9.40;99.90;;;;;;5042533;28;20496;-36
2023/04/19 11:17:18;;;;;;;22.55;13.00;;;9.50;99.90;;;;;;5044337;28;20052;-36
2023/04/19 11:19:55;;;;;;;19.38;12.40;;;9.50;99.90;;;;;;5038525;28;20055;-37
2023/04/19 11:22:37;;;;;;;22.10;12.98;;;9.60;99.90;;;;;;5040178;28;20060;-37
2023/04/19 11:25:09;;;;;;;22.02;15.05;;;9.70;99.90;;;;;;5044445;28;20064;-37
2023/04/19 11:27:38;;;;;;;24.33;15.60;;;9.60;99.90;;;;;;5043252;28;20048;-36
2023/04/19 11:30:18;;;;;;;20.83;13.55;;;9.50;99.90;;;;;;5042754;28;20064;-37
2023/04/19 11:32:53;;;;;;;22.95;15.88;;;9.30;99.90;;;;;;5040731;28;20041;-39
2023/04/19 11:35:25;;;;;;;20.25;13.80;;;9.20;99.90;;;;;;5042501;28;20049;-36
2023/04/19 11:37:55;;;;;;;21.77;13.02;;;9.00;99.90;;;;;;5041464;28;20461;-36
2023/04/19 11:40:27;;;;;;;23.50;14.88;;;8.80;99.90;;;;;;5042957;28;20064;-36
2023/04/19 11:42:57;;;;;;;26.08;16.40;;;8.70;99.90;;;;;;5042536;28;20048;-37
2023/04/19 11:45:30;;;;;;;23.27;15.45;;;8.60;99.90;;;;;;5042267;28;20053;-37
2023/04/19 11:48:14;;;;;;;19.80;12.18;;;8.50;99.90;;;;;;5042625;28;20045;-37
2023/04/19 11:50:43;;;;;;;23.75;13.00;;;8.40;99.90;;;;;;5042048;28;20061;-38
2023/04/19 11:53:31;;;;;;;26.00;14.43;;;8.40;99.90;;;;;;5044619;28;20060;-37
2023/04/19 11:56:06;;;;;;;20.17;13.48;;;8.30;99.90;;;;;;5038386;28;20448;-37
2023/04/19 11:58:38;;;;;;;22.00;13.90;;;8.30;99.90;;;;;;5042021;28;20485;-38
2023/04/19 12:01:12;;;;;;;20.95;13.70;;;8.20;99.90;;;;;;5035855;28;20053;-37
2023/04/19 12:03:43;;;;;;;19.65;15.18;;;8.20;99.90;;;;;;5042530;28;20233;-37
2023/04/19 12:06:17;;;;;;;24.83;14.25;;;8.10;99.90;;;;;;5032210;28;20060;-38
2023/04/19 12:08:46;;;;;;;13.05;10.85;;;8.10;99.90;;;;;;5043454;28;20509;-38
2023/04/19 12:11:15;;;;;;;10.73;7.78;;;7.90;99.90;;;;;;5042501;28;20048;-39
2023/04/19 12:13:43;;;;;;;8.73;6.40;;;7.80;99.90;;;;;;5042590;28;20536;-38
2023/04/19 12:16:12;;;;;;;9.75;7.40;;;7.60;99.90;;;;;;5042175;28;20053;-38
2023/04/19 12:18:50;;;;;;;8.20;5.57;;;7.50;99.90;;;;;;5042017;28;20045;-38
2023/04/19 12:21:33;;;;;;;6.80;5.22;;;7.40;99.90;;;;;;5042500;28;20048;-39
2023/04/19 12:24:00;;;;;;;10.40;5.35;;;7.30;99.90;;;;;;5042095;28;20045;-38
2023/04/19 12:26:29;;;;;;;5.63;5.03;;;7.20;99.90;;;;;;5042716;28;20037;-37
2023/04/19 12:28:58;;;;;;;7.82;6.53;;;7.20;99.90;;;;;;5041560;28;20061;-38
2023/04/19 12:31:26;;;;;;;11.27;5.20;;;7.20;99.90;;;;;;5041425;28;20060;-38
2023/04/19 12:33:53;;;;;;;7.85;5.60;;;7.20;99.90;;;;;;5042065;28;20059;-38
2023/04/19 12:36:21;;;;;;;6.05;5.45;;;7.20;99.90;;;;;;5042436;28;20512;-38
2023/04/19 12:38:48;;;;;;;8.75;6.50;;;7.10;99.90;;;;;;5041500;28;20395;-39
2023/04/19 12:41:16;;;;;;;4.32;3.40;;;7.10;99.90;;;;;;5041074;28;20052;-42
2023/04/19 12:43:43;;;;;;;6.45;5.15;;;7.00;99.90;;;;;;5056568;28;20072;-38
2023/04/19 12:46:11;;;;;;;10.30;5.20;;;7.00;99.90;;;;;;5041484;28;20053;-38
2023/04/19 12:48:39;;;;;;;5.55;3.08;;;7.00;99.90;;;;;;5041165;28;20053;-38
2023/04/19 12:51:06;;;;;;;6.75;4.18;;;6.90;99.90;;;;;;5041346;28;20057;-37
2023/04/19 12:53:34;;;;;;;4.70;3.72;;;6.90;99.90;;;;;;5042811;28;20409;-40
2023/04/19 12:56:01;;;;;;;4.72;3.67;;;6.90;99.90;;;;;;5040090;28;20053;-38
2023/04/19 12:58:29;;;;;;;6.40;5.80;;;6.90;99.90;;;;;;5040860;28;20570;-38